Time,TemperatureF,DewpointF,PressureIn,WindDirection,WindDirectionDegrees,WindSpeedMPH,WindSpeedGustMPH,Humidity,HourlyPrecipIn,Conditions,Clouds,dailyrainin,SoftwareType,DateUTC
2013-01-15 00:00:00,62.2,59.5,30.12,WSW,242,0.0,0.0,91,0.00,,,0.00,meteohub,2013-01-15 05:00:00,
2013-01-15 00:02:00,62.2,59.5,30.12,WSW,242,0.0,0.0,91,0.00,,,0.00,meteohub,2013-01-15 05:02:00,
2013-01-15 00:06:00,62.2,59.5,30.12,WSW,242,0.0,0.0,91,0.00,,,0.00,meteohub,2013-01-15 05:06:00,
2013-01-15 00:07:00,62.2,59.5,30.12,WSW,242,0.0,0.0,91,0.00,,,0.00,meteohub,2013-01-15 05:07:00,
2013-01-15 00:12:00,62.2,59.5,30.12,WSW,242,0.0,0.0,91,0.00,,,0.00,meteohub,2013-01-15 05:12:00,
2013-01-15 00:17:00,62.2,59.9,30.12,WSW,242,0.0,0.0,92,0.00,,,0.00,meteohub,2013-01-15 05:17:00,
2013-01-15 00:22:00,62.2,59.9,30.12,WSW,242,0.0,0.0,92,0.00,,,0.00,meteohub,2013-01-15 05:22:00,
2013-01-15 00:27:00,62.2,59.9,30.12,WSW,242,0.0,0.0,92,0.00,,,0.00,meteohub,2013-01-15 05:27:00,
2013-01-15 00:32:00,62.4,60.1,30.12,WSW,242,0.0,0.0,92,0.00,,,0.00,meteohub,2013-01-15 05:32:00,
2013-01-15 00:37:00,62.4,60.1,30.12,WSW,242,0.0,0.0,92,0.00,,,0.00,meteohub,2013-01-15 05:37:00,
2013-01-15 00:42:00,62.2,59.9,30.13,WSW,242,0.0,0.0,92,0.00,,,0.00,meteohub,2013-01-15 05:42:00,
2013-01-15 00:47:00,62.2,59.9,30.12,WSW,242,0.0,0.0,92,0.00,,,0.00,meteohub,2013-01-15 05:47:00,
2013-01-15 00:52:00,62.2,59.9,30.12,WSW,242,0.0,0.0,92,0.00,,,0.00,meteohub,2013-01-15 05:52:00,
2013-01-15 00:57:00,62.2,59.9,30.12,WSW,242,0.0,0.0,92,0.00,,,0.00,meteohub,2013-01-15 05:57:00,
2013-01-15 01:02:00,62.2,59.9,30.12,WSW,242,0.0,0.0,92,0.00,,,0.00,meteohub,2013-01-15 06:02:00,
2013-01-15 01:07:00,62.2,59.9,30.12,WSW,242,0.0,0.0,92,0.00,,,0.00,meteohub,2013-01-15 06:07:00,
2013-01-15 01:12:00,62.4,60.4,30.12,WSW,242,0.0,1.0,93,0.00,,,0.00,meteohub,2013-01-15 06:12:00,
2013-01-15 01:17:00,62.4,60.4,30.12,WSW,242,0.0,1.0,93,0.00,,,0.00,meteohub,2013-01-15 06:17:00,
2013-01-15 01:22:00,62.6,60.6,30.12,WSW,242,0.0,1.0,93,0.00,,,0.00,meteohub,2013-01-15 06:22:00,
2013-01-15 01:27:00,62.6,60.6,30.12,WSW,242,0.0,1.0,93,0.00,,,0.00,meteohub,2013-01-15 06:27:00,
2013-01-15 01:32:00,62.8,61.0,30.12,WSW,242,0.0,1.0,94,0.00,,,0.00,meteohub,2013-01-15 06:32:00,
2013-01-15 01:37:00,62.8,61.0,30.12,WSW,242,0.0,1.0,94,0.00,,,0.00,meteohub,2013-01-15 06:37:00,
2013-01-15 01:42:00,62.8,61.0,30.12,WSW,242,0.0,1.0,94,0.00,,,0.00,meteohub,2013-01-15 06:42:00,
2013-01-15 01:47:00,63.0,61.2,30.12,WSW,242,0.0,1.0,94,0.00,,,0.00,meteohub,2013-01-15 06:47:00,
2013-01-15 01:52:00,62.8,61.0,30.12,WSW,242,0.0,1.0,94,0.00,,,0.00,meteohub,2013-01-15 06:52:00,
2013-01-15 01:57:00,62.6,60.8,30.12,WSW,242,0.0,0.0,94,0.00,,,0.00,meteohub,2013-01-15 06:57:00,
2013-01-15 02:02:00,62.4,60.6,30.12,WSW,242,0.0,0.0,94,0.00,,,0.00,meteohub,2013-01-15 07:02:00,
2013-01-15 02:07:00,62.2,60.4,30.12,WSW,242,0.0,0.0,94,0.00,,,0.00,meteohub,2013-01-15 07:07:00,
2013-01-15 02:12:00,62.2,60.4,30.12,WSW,242,0.0,0.0,94,0.00,,,0.00,meteohub,2013-01-15 07:12:00,
2013-01-15 02:17:00,62.4,61.0,30.12,WSW,242,0.0,1.0,95,0.00,,,0.00,meteohub,2013-01-15 07:17:00,
2013-01-15 02:22:00,62.4,61.0,30.12,WSW,242,0.0,1.0,95,0.00,,,0.00,meteohub,2013-01-15 07:22:00,
2013-01-15 02:27:00,62.2,60.8,30.12,WSW,242,0.0,1.0,95,0.00,,,0.00,meteohub,2013-01-15 07:27:00,
2013-01-15 02:32:00,62.1,60.6,30.11,WSW,242,0.0,0.0,95,0.00,,,0.00,meteohub,2013-01-15 07:32:00,
2013-01-15 02:37:00,61.9,60.1,30.11,WSW,242,0.0,0.0,94,0.00,,,0.00,meteohub,2013-01-15 07:37:00,
2013-01-15 02:42:00,61.7,59.9,30.11,WSW,242,0.0,0.0,94,0.00,,,0.00,meteohub,2013-01-15 07:42:00,
2013-01-15 02:47:00,61.5,60.1,30.11,WSW,242,0.0,0.0,95,0.00,,,0.00,meteohub,2013-01-15 07:47:00,
2013-01-15 02:52:00,61.5,60.1,30.11,WSW,242,0.0,0.0,95,0.00,,,0.00,meteohub,2013-01-15 07:52:00,
2013-01-15 02:57:00,61.3,59.9,30.11,WSW,242,0.0,0.0,95,0.00,,,0.00,meteohub,2013-01-15 07:57:00,
2013-01-15 03:02:00,61.3,59.9,30.11,WSW,242,0.0,0.0,95,0.00,,,0.00,meteohub,2013-01-15 08:02:00,
2013-01-15 03:07:00,61.3,59.9,30.11,WSW,242,0.0,0.0,95,0.00,,,0.00,meteohub,2013-01-15 08:07:00,
2013-01-15 03:12:00,61.3,59.9,30.10,WSW,242,0.0,0.0,95,0.00,,,0.00,meteohub,2013-01-15 08:12:00,
2013-01-15 03:17:00,61.5,60.4,30.10,WSW,242,0.0,0.0,96,0.00,,,0.00,meteohub,2013-01-15 08:17:00,
2013-01-15 03:22:00,61.9,61.0,30.10,WSW,242,0.0,0.0,97,0.00,,,0.00,meteohub,2013-01-15 08:22:00,
2013-01-15 03:27:00,62.2,61.3,30.10,WSW,242,0.0,1.0,97,0.00,,,0.00,meteohub,2013-01-15 08:27:00,
2013-01-15 03:32:00,62.8,61.9,30.10,WSW,242,0.0,1.0,97,0.00,,,0.00,meteohub,2013-01-15 08:32:00,
2013-01-15 03:37:00,63.0,62.1,30.10,WSW,242,0.0,1.0,97,0.00,,,0.00,meteohub,2013-01-15 08:37:00,
2013-01-15 03:42:00,63.1,62.2,30.09,WSW,242,0.0,1.0,97,0.00,,,0.00,meteohub,2013-01-15 08:42:00,
2013-01-15 03:47:00,63.3,62.4,30.09,WSW,242,0.0,1.0,97,0.00,,,0.00,meteohub,2013-01-15 08:47:00,
2013-01-15 03:52:00,63.7,62.8,30.09,SSW,207,0.0,1.0,97,0.00,,,0.00,meteohub,2013-01-15 08:52:00,
2013-01-15 03:57:00,63.7,62.8,30.09,West,277,0.0,2.0,97,0.00,,,0.00,meteohub,2013-01-15 08:57:00,
2013-01-15 04:02:00,63.7,62.6,30.09,West,277,0.0,2.0,96,0.00,,,0.00,meteohub,2013-01-15 09:02:00,
2013-01-15 04:07:00,63.7,62.6,30.09,West,277,0.0,1.0,96,0.00,,,0.00,meteohub,2013-01-15 09:07:00,
2013-01-15 04:12:00,63.7,62.6,30.09,West,277,0.0,0.0,96,0.00,,,0.00,meteohub,2013-01-15 09:12:00,
2013-01-15 04:17:00,63.7,62.6,30.09,SSW,200,0.0,0.0,96,0.00,,,0.00,meteohub,2013-01-15 09:17:00,
2013-01-15 04:23:00,63.7,62.6,30.09,SSW,200,0.0,3.0,96,0.00,,,0.00,meteohub,2013-01-15 09:23:00,
2013-01-15 04:29:00,63.7,62.6,30.09,South,186,0.0,3.0,96,0.00,,,0.00,meteohub,2013-01-15 09:29:00,
2013-01-15 04:35:00,63.3,62.2,30.09,South,186,0.0,2.0,96,0.00,,,0.00,meteohub,2013-01-15 09:35:00,
2013-01-15 04:41:00,63.3,62.2,30.09,South,186,0.0,2.0,96,0.00,,,0.00,meteohub,2013-01-15 09:41:00,
2013-01-15 04:47:00,63.1,62.1,30.09,South,186,0.0,1.0,96,0.00,,,0.00,meteohub,2013-01-15 09:47:00,
2013-01-15 04:52:00,63.1,62.1,30.09,South,186,1.0,1.0,96,0.00,,,0.00,meteohub,2013-01-15 09:52:00,
2013-01-15 04:57:00,63.1,62.1,30.09,South,186,0.0,1.0,96,0.00,,,0.00,meteohub,2013-01-15 09:57:00,
2013-01-15 05:02:00,63.1,62.1,30.09,South,186,0.0,1.0,96,0.00,,,0.00,meteohub,2013-01-15 10:02:00,
2013-01-15 05:07:00,63.1,62.1,30.09,South,186,0.0,1.0,96,0.00,,,0.00,meteohub,2013-01-15 10:07:00,
2013-01-15 05:12:00,63.1,62.1,30.09,South,186,0.0,0.0,96,0.00,,,0.00,meteohub,2013-01-15 10:12:00,
2013-01-15 05:17:00,63.1,61.7,30.09,South,186,0.0,1.0,95,0.00,,,0.00,meteohub,2013-01-15 10:17:00,
2013-01-15 05:22:00,63.0,61.5,30.09,South,186,0.0,1.0,95,0.00,,,0.00,meteohub,2013-01-15 10:22:00,
2013-01-15 05:27:00,63.0,61.9,30.09,South,186,0.0,1.0,96,0.00,,,0.00,meteohub,2013-01-15 10:27:00,
2013-01-15 05:32:00,63.1,62.1,30.09,South,186,0.0,1.0,96,0.00,,,0.00,meteohub,2013-01-15 10:32:00,
2013-01-15 05:38:00,63.0,61.9,30.10,South,186,0.0,1.0,96,0.00,,,0.00,meteohub,2013-01-15 10:38:00,
2013-01-15 05:44:00,63.0,61.9,30.09,South,186,0.0,0.0,96,0.00,,,0.00,meteohub,2013-01-15 10:44:00,
2013-01-15 05:50:00,62.8,61.3,30.09,South,186,0.0,0.0,95,0.01,,,0.01,meteohub,2013-01-15 10:50:00,
2013-01-15 05:56:00,62.8,61.7,30.09,South,186,0.0,0.0,96,0.01,,,0.01,meteohub,2013-01-15 10:56:00,
2013-01-15 06:02:00,63.0,61.9,30.09,South,186,0.0,0.0,96,0.01,,,0.01,meteohub,2013-01-15 11:02:00,
2013-01-15 06:07:00,63.0,61.9,30.09,South,186,0.0,0.0,96,0.01,,,0.01,meteohub,2013-01-15 11:07:00,
2013-01-15 06:12:00,63.0,61.9,30.09,South,186,0.0,0.0,96,0.01,,,0.01,meteohub,2013-01-15 11:12:00,
2013-01-15 06:17:00,63.1,62.1,30.09,South,186,0.0,1.0,96,0.01,,,0.01,meteohub,2013-01-15 11:17:00,
2013-01-15 06:22:00,63.0,61.9,30.09,South,186,0.0,1.0,96,0.01,,,0.01,meteohub,2013-01-15 11:22:00,
2013-01-15 06:27:00,63.0,61.9,30.09,South,186,0.0,1.0,96,0.01,,,0.01,meteohub,2013-01-15 11:27:00,
2013-01-15 06:32:00,63.0,61.9,30.09,South,186,0.0,0.0,96,0.01,,,0.01,meteohub,2013-01-15 11:32:00,
2013-01-15 06:37:00,63.1,62.1,30.09,South,186,0.0,1.0,96,0.01,,,0.01,meteohub,2013-01-15 11:37:00,
2013-01-15 06:42:00,63.1,62.2,30.09,South,186,1.0,1.0,97,0.01,,,0.01,meteohub,2013-01-15 11:42:00,
2013-01-15 06:47:00,63.3,62.4,30.10,South,174,0.0,2.0,97,0.01,,,0.01,meteohub,2013-01-15 11:47:00,
2013-01-15 06:53:00,63.7,62.8,30.10,South,179,0.0,3.0,97,0.00,,,0.01,meteohub,2013-01-15 11:53:00,
2013-01-15 06:59:00,63.9,63.0,30.10,South,174,0.0,3.0,97,0.00,,,0.01,meteohub,2013-01-15 11:59:00,
2013-01-15 07:05:00,63.9,62.8,30.10,SSE,167,0.0,2.0,96,0.00,,,0.01,meteohub,2013-01-15 12:05:00,
2013-01-15 07:11:00,63.9,62.8,30.10,SE,146,1.0,3.0,96,0.00,,,0.01,meteohub,2013-01-15 12:11:00,
2013-01-15 07:17:00,63.9,62.8,30.11,SE,146,0.0,3.0,96,0.00,,,0.01,meteohub,2013-01-15 12:17:00,
2013-01-15 07:22:00,63.9,62.8,30.11,SSE,147,0.0,3.0,96,0.00,,,0.01,meteohub,2013-01-15 12:22:00,
2013-01-15 07:30:00,63.5,62.1,30.11,SSE,147,0.0,2.0,95,0.00,,,0.01,meteohub,2013-01-15 12:30:00,
2013-01-15 07:36:00,63.3,61.9,30.11,SSE,147,0.0,1.0,95,0.00,,,0.01,meteohub,2013-01-15 12:36:00,
2013-01-15 07:42:00,63.3,61.9,30.11,SSE,147,0.0,1.0,95,0.00,,,0.01,meteohub,2013-01-15 12:42:00,
2013-01-15 07:47:00,63.3,62.2,30.11,South,174,1.0,1.0,96,0.00,,,0.01,meteohub,2013-01-15 12:47:00,
2013-01-15 07:52:00,63.7,62.6,30.11,South,173,2.0,2.0,96,0.00,,,0.01,meteohub,2013-01-15 12:52:00,
2013-01-15 07:57:00,63.9,62.8,30.11,South,173,0.0,2.0,96,0.00,,,0.01,meteohub,2013-01-15 12:57:00,
2013-01-15 08:02:00,64.0,63.0,30.12,South,173,1.0,2.0,96,0.00,,,0.01,meteohub,2013-01-15 13:02:00,
2013-01-15 08:07:00,64.4,63.5,30.12,South,173,0.0,2.0,97,0.00,,,0.01,meteohub,2013-01-15 13:07:00,
2013-01-15 08:12:00,64.8,63.7,30.12,South,173,2.0,2.0,96,0.00,,,0.01,meteohub,2013-01-15 13:12:00,
2013-01-15 08:17:00,65.1,64.0,30.12,SSE,165,1.0,3.0,96,0.00,,,0.01,meteohub,2013-01-15 13:17:00,
2013-01-15 08:22:00,65.7,64.4,30.12,South,175,1.0,3.0,96,0.00,,,0.01,meteohub,2013-01-15 13:22:00,
2013-01-15 08:27:00,66.0,64.6,30.12,SE,138,1.0,5.0,95,0.00,,,0.01,meteohub,2013-01-15 13:27:00,
2013-01-15 08:33:00,66.7,64.9,30.12,SE,133,1.0,5.0,94,0.00,,,0.01,meteohub,2013-01-15 13:33:00,
2013-01-15 08:39:00,67.3,65.1,30.12,South,178,0.0,5.0,93,0.00,,,0.01,meteohub,2013-01-15 13:39:00,
2013-01-15 08:45:00,67.8,65.5,30.12,South,187,0.0,3.0,92,0.00,,,0.01,meteohub,2013-01-15 13:45:00,
2013-01-15 08:51:00,68.5,65.5,30.12,SSE,167,3.0,4.0,90,0.00,,,0.01,meteohub,2013-01-15 13:51:00,
2013-01-15 08:57:00,69.3,65.5,30.12,SSE,148,2.0,4.0,88,0.00,,,0.01,meteohub,2013-01-15 13:57:00,
2013-01-15 09:02:00,69.6,65.8,30.12,SSW,204,2.0,5.0,88,0.00,,,0.01,meteohub,2013-01-15 14:02:00,
2013-01-15 09:07:00,70.0,66.0,30.12,SSE,157,1.0,5.0,87,0.00,,,0.01,meteohub,2013-01-15 14:07:00,
2013-01-15 09:12:00,70.3,66.0,30.12,South,188,1.0,5.0,86,0.00,,,0.01,meteohub,2013-01-15 14:12:00,
2013-01-15 09:17:00,70.9,66.6,30.12,SE,138,0.0,7.0,86,0.00,,,0.01,meteohub,2013-01-15 14:17:00,
2013-01-15 09:22:00,71.2,66.2,30.12,SSE,150,2.0,7.0,84,0.00,,,0.01,meteohub,2013-01-15 14:22:00,
2013-01-15 09:27:00,71.6,66.6,30.12,SE,141,3.0,6.0,84,0.00,,,0.01,meteohub,2013-01-15 14:27:00,
2013-01-15 09:33:00,72.0,66.9,30.13,SSE,150,1.0,6.0,84,0.00,,,0.01,meteohub,2013-01-15 14:33:00,
2013-01-15 09:39:00,72.3,66.9,30.13,SSE,157,4.0,6.0,83,0.00,,,0.01,meteohub,2013-01-15 14:39:00,
2013-01-15 09:45:00,73.0,67.6,30.13,SE,126,1.0,5.0,83,0.00,,,0.01,meteohub,2013-01-15 14:45:00,
2013-01-15 09:51:00,73.6,67.5,30.13,ESE,115,0.0,4.0,81,0.00,,,0.01,meteohub,2013-01-15 14:51:00,
2013-01-15 09:57:00,73.8,67.3,30.13,South,182,4.0,4.0,80,0.00,,,0.01,meteohub,2013-01-15 14:57:00,
2013-01-15 10:02:00,73.9,67.1,30.13,SSE,157,3.0,6.0,79,0.00,,,0.01,meteohub,2013-01-15 15:02:00,
2013-01-15 10:07:00,74.1,67.1,30.13,SSW,212,3.0,6.0,79,0.00,,,0.01,meteohub,2013-01-15 15:07:00,
2013-01-15 10:12:00,74.3,66.9,30.13,SE,130,2.0,8.0,78,0.00,,,0.01,meteohub,2013-01-15 15:12:00,
2013-01-15 10:17:00,74.8,67.1,30.13,SE,131,6.0,8.0,77,0.00,,,0.01,meteohub,2013-01-15 15:17:00,
2013-01-15 10:22:00,75.0,67.3,30.12,SSE,151,1.0,8.0,77,0.00,,,0.01,meteohub,2013-01-15 15:22:00,
2013-01-15 10:27:00,75.4,66.9,30.13,ESE,120,2.0,10.0,75,0.00,,,0.01,meteohub,2013-01-15 15:27:00,
2013-01-15 10:32:00,75.6,67.1,30.12,South,182,2.0,10.0,75,0.00,,,0.01,meteohub,2013-01-15 15:32:00,
2013-01-15 10:37:00,75.6,67.1,30.12,SW,224,1.0,10.0,75,0.00,,,0.01,meteohub,2013-01-15 15:37:00,
2013-01-15 10:42:00,75.7,67.3,30.12,South,180,6.0,10.0,75,0.00,,,0.01,meteohub,2013-01-15 15:42:00,
2013-01-15 10:47:00,76.3,67.8,30.12,SE,139,0.0,10.0,75,0.00,,,0.01,meteohub,2013-01-15 15:47:00,
2013-01-15 10:52:00,76.6,67.3,30.12,SSE,159,3.0,8.0,73,0.00,,,0.01,meteohub,2013-01-15 15:52:00,
2013-01-15 10:57:00,77.2,67.1,30.11,SSE,152,2.0,8.0,71,0.00,,,0.01,meteohub,2013-01-15 15:57:00,
2013-01-15 11:02:00,77.2,67.5,30.11,East,84,3.0,7.0,72,0.00,,,0.01,meteohub,2013-01-15 16:02:00,
2013-01-15 11:07:00,76.8,67.5,30.11,SSE,147,5.0,7.0,73,0.00,,,0.01,meteohub,2013-01-15 16:07:00,
2013-01-15 11:12:00,76.6,68.2,30.11,SE,141,1.0,8.0,75,0.00,,,0.01,meteohub,2013-01-15 16:12:00,
2013-01-15 11:17:00,76.6,67.6,30.10,ESE,117,3.0,8.0,74,0.00,,,0.01,meteohub,2013-01-15 16:17:00,
2013-01-15 11:22:00,76.8,67.8,30.10,ESE,117,1.0,9.0,74,0.00,,,0.01,meteohub,2013-01-15 16:22:00,
2013-01-15 11:27:00,76.8,67.8,30.10,SE,124,4.0,9.0,74,0.00,,,0.01,meteohub,2013-01-15 16:27:00,
2013-01-15 11:32:00,76.8,67.5,30.10,SE,126,1.0,9.0,73,0.00,,,0.01,meteohub,2013-01-15 16:32:00,
2013-01-15 11:37:00,77.4,66.0,30.10,SSE,148,2.0,9.0,68,0.00,,,0.01,meteohub,2013-01-15 16:37:00,
2013-01-15 11:42:00,77.7,65.8,30.09,ESE,119,5.0,9.0,67,0.00,,,0.01,meteohub,2013-01-15 16:42:00,
2013-01-15 11:47:00,77.7,66.4,30.09,SSE,157,3.0,9.0,68,0.00,,,0.01,meteohub,2013-01-15 16:47:00,
2013-01-15 11:52:00,77.9,66.0,30.09,SSW,210,1.0,9.0,67,0.00,,,0.01,meteohub,2013-01-15 16:52:00,
2013-01-15 11:57:00,78.4,65.3,30.09,SW,223,3.0,8.0,64,0.00,,,0.01,meteohub,2013-01-15 16:57:00,
2013-01-15 12:02:00,79.0,65.3,30.09,SSE,148,3.0,9.0,63,0.00,,,0.01,meteohub,2013-01-15 17:02:00,
2013-01-15 12:07:00,79.2,64.9,30.09,SSW,209,5.0,10.0,62,0.00,,,0.01,meteohub,2013-01-15 17:07:00,
2013-01-15 12:12:00,78.6,65.5,30.09,SW,232,1.0,10.0,64,0.00,,,0.01,meteohub,2013-01-15 17:12:00,
2013-01-15 12:17:00,78.8,65.7,30.08,ESE,121,3.0,10.0,64,0.00,,,0.01,meteohub,2013-01-15 17:17:00,
2013-01-15 12:22:00,79.0,65.3,30.08,SSW,205,0.0,9.0,63,0.00,,,0.01,meteohub,2013-01-15 17:22:00,
2013-01-15 12:27:00,79.5,65.3,30.08,SSE,167,4.0,9.0,62,0.00,,,0.01,meteohub,2013-01-15 17:27:00,
2013-01-15 12:32:00,80.2,65.5,30.07,SSW,207,5.0,8.0,61,0.00,,,0.01,meteohub,2013-01-15 17:32:00,
2013-01-15 12:37:00,79.9,65.7,30.07,SE,137,7.0,9.0,62,0.00,,,0.01,meteohub,2013-01-15 17:37:00,
2013-01-15 12:42:00,79.7,65.1,30.07,SSE,161,4.0,9.0,61,0.00,,,0.01,meteohub,2013-01-15 17:42:00,
2013-01-15 12:47:00,79.9,65.3,30.07,SE,143,6.0,9.0,61,0.00,,,0.01,meteohub,2013-01-15 17:47:00,
2013-01-15 12:52:00,79.5,65.8,30.06,SSW,198,6.0,9.0,63,0.00,,,0.01,meteohub,2013-01-15 17:52:00,
2013-01-15 12:57:00,79.9,65.3,30.06,SSE,153,4.0,8.0,61,0.00,,,0.01,meteohub,2013-01-15 17:57:00,
2013-01-15 13:02:00,79.9,65.3,30.06,SSW,194,3.0,8.0,61,0.00,,,0.01,meteohub,2013-01-15 18:02:00,
2013-01-15 13:07:00,79.0,64.8,30.06,SW,235,1.0,8.0,62,0.00,,,0.01,meteohub,2013-01-15 18:07:00,
2013-01-15 13:12:00,78.4,65.3,30.06,South,172,0.0,8.0,64,0.00,,,0.01,meteohub,2013-01-15 18:12:00,
2013-01-15 13:17:00,78.4,64.8,30.06,ESE,105,4.0,8.0,63,0.00,,,0.01,meteohub,2013-01-15 18:17:00,
2013-01-15 13:22:00,78.3,64.6,30.06,SSE,159,1.0,8.0,63,0.00,,,0.01,meteohub,2013-01-15 18:22:00,
2013-01-15 13:27:00,78.4,64.4,30.06,South,170,2.0,8.0,62,0.00,,,0.01,meteohub,2013-01-15 18:27:00,
2013-01-15 13:32:00,78.3,64.6,30.05,SE,136,1.0,7.0,63,0.00,,,0.01,meteohub,2013-01-15 18:32:00,
2013-01-15 13:37:00,78.4,65.3,30.05,SSW,205,3.0,7.0,64,0.00,,,0.01,meteohub,2013-01-15 18:37:00,
2013-01-15 13:42:00,78.6,64.9,30.05,SSE,147,3.0,7.0,63,0.00,,,0.01,meteohub,2013-01-15 18:42:00,
2013-01-15 13:47:00,78.6,64.9,30.05,ESE,116,2.0,7.0,63,0.00,,,0.01,meteohub,2013-01-15 18:47:00,
2013-01-15 13:52:00,78.1,66.2,30.05,SE,141,1.0,7.0,67,0.00,,,0.01,meteohub,2013-01-15 18:52:00,
2013-01-15 13:57:00,77.5,66.6,30.05,SE,135,0.0,7.0,69,0.00,,,0.01,meteohub,2013-01-15 18:57:00,
2013-01-15 14:02:00,77.7,64.9,30.05,SSE,147,2.0,7.0,65,0.00,,,0.01,meteohub,2013-01-15 19:02:00,
2013-01-15 14:07:00,79.0,65.3,30.04,SE,134,0.0,5.0,63,0.00,,,0.01,meteohub,2013-01-15 19:07:00,
2013-01-15 14:12:00,80.4,64.8,30.04,SSW,213,4.0,7.0,59,0.00,,,0.01,meteohub,2013-01-15 19:12:00,
2013-01-15 14:17:00,81.3,65.1,30.04,SSW,206,1.0,7.0,58,0.00,,,0.01,meteohub,2013-01-15 19:17:00,
2013-01-15 14:22:00,81.7,64.9,30.04,South,171,0.0,6.0,57,0.00,,,0.01,meteohub,2013-01-15 19:22:00,
2013-01-15 14:27:00,81.1,64.4,30.04,SSE,157,4.0,8.0,57,0.00,,,0.01,meteohub,2013-01-15 19:27:00,
2013-01-15 14:32:00,80.8,65.1,30.04,SE,146,1.0,8.0,59,0.00,,,0.01,meteohub,2013-01-15 19:32:00,
2013-01-15 14:37:00,81.0,65.3,30.04,SSE,157,3.0,6.0,59,0.00,,,0.01,meteohub,2013-01-15 19:37:00,
2013-01-15 14:42:00,81.0,65.3,30.04,SW,215,5.0,7.0,59,0.00,,,0.01,meteohub,2013-01-15 19:42:00,
2013-01-15 14:47:00,81.0,65.8,30.04,SW,225,6.0,7.0,60,0.00,,,0.01,meteohub,2013-01-15 19:47:00,
2013-01-15 14:52:00,80.6,65.5,30.03,West,259,6.0,8.0,60,0.00,,,0.01,meteohub,2013-01-15 19:52:00,
2013-01-15 14:57:00,80.6,65.8,30.04,SW,227,1.0,11.0,61,0.00,,,0.01,meteohub,2013-01-15 19:57:00,
2013-01-15 15:02:00,80.2,65.5,30.04,SSW,207,5.0,11.0,61,0.00,,,0.01,meteohub,2013-01-15 20:02:00,
2013-01-15 15:07:00,80.1,65.8,30.04,West,265,8.0,11.0,62,0.00,,,0.01,meteohub,2013-01-15 20:07:00,
2013-01-15 15:12:00,79.9,65.7,30.04,West,265,7.0,9.0,62,0.00,,,0.01,meteohub,2013-01-15 20:12:00,
2013-01-15 15:17:00,79.3,65.1,30.04,South,169,3.0,12.0,62,0.00,,,0.01,meteohub,2013-01-15 20:17:00,
2013-01-15 15:22:00,79.3,64.8,30.04,SW,223,5.0,12.0,61,0.00,,,0.01,meteohub,2013-01-15 20:22:00,
2013-01-15 15:27:00,79.7,65.5,30.04,WSW,257,4.0,12.0,62,0.00,,,0.01,meteohub,2013-01-15 20:27:00,
2013-01-15 15:32:00,79.3,64.8,30.04,SW,233,2.0,12.0,61,0.00,,,0.01,meteohub,2013-01-15 20:32:00,
2013-01-15 15:37:00,79.5,64.4,30.04,SSW,200,2.0,13.0,60,0.00,,,0.01,meteohub,2013-01-15 20:37:00,
2013-01-15 15:42:00,79.5,64.4,30.04,WSW,254,3.0,13.0,60,0.00,,,0.01,meteohub,2013-01-15 20:42:00,
2013-01-15 15:47:00,79.9,64.8,30.04,SSW,195,3.0,10.0,60,0.00,,,0.01,meteohub,2013-01-15 20:47:00,
2013-01-15 15:52:00,79.9,64.8,30.04,WSW,258,5.0,11.0,60,0.00,,,0.01,meteohub,2013-01-15 20:52:00,
2013-01-15 15:57:00,80.1,64.9,30.04,South,181,2.0,11.0,60,0.00,,,0.01,meteohub,2013-01-15 20:57:00,
2013-01-15 16:02:00,79.7,64.6,30.04,WSW,247,2.0,11.0,60,0.00,,,0.01,meteohub,2013-01-15 21:02:00,
2013-01-15 16:07:00,80.1,64.4,30.04,SSW,196,3.0,9.0,59,0.00,,,0.01,meteohub,2013-01-15 21:07:00,
2013-01-15 16:12:00,79.9,64.8,30.04,WSW,240,6.0,8.0,60,0.00,,,0.01,meteohub,2013-01-15 21:12:00,
2013-01-15 16:17:00,79.3,64.2,30.04,SW,221,6.0,6.0,60,0.00,,,0.01,meteohub,2013-01-15 21:17:00,
2013-01-15 16:22:00,79.0,63.9,30.04,West,269,2.0,7.0,60,0.00,,,0.01,meteohub,2013-01-15 21:22:00,
2013-01-15 16:27:00,79.0,63.9,30.04,WSW,246,5.0,7.0,60,0.00,,,0.01,meteohub,2013-01-15 21:27:00,
2013-01-15 16:32:00,78.6,64.0,30.04,SW,232,3.0,9.0,61,0.00,,,0.01,meteohub,2013-01-15 21:32:00,
2013-01-15 16:37:00,78.6,63.5,30.04,WSW,242,5.0,9.0,60,0.00,,,0.01,meteohub,2013-01-15 21:37:00,
2013-01-15 16:42:00,78.4,62.4,30.04,West,262,3.0,9.0,58,0.00,,,0.01,meteohub,2013-01-15 21:42:00,
2013-01-15 16:47:00,78.3,62.2,30.04,WSW,257,1.0,8.0,58,0.00,,,0.01,meteohub,2013-01-15 21:47:00,
2013-01-15 16:52:00,78.3,62.2,30.04,West,263,2.0,8.0,58,0.00,,,0.01,meteohub,2013-01-15 21:52:00,
2013-01-15 16:57:00,78.1,62.1,30.04,West,261,3.0,8.0,58,0.00,,,0.01,meteohub,2013-01-15 21:57:00,
2013-01-15 17:02:00,77.5,62.1,30.04,West,277,6.0,8.0,59,0.00,,,0.01,meteohub,2013-01-15 22:02:00,
2013-01-15 17:07:00,77.2,62.2,30.05,WSW,244,3.0,9.0,60,0.00,,,0.01,meteohub,2013-01-15 22:07:00,
2013-01-15 17:12:00,76.8,62.4,30.05,SSW,203,3.0,9.0,61,0.00,,,0.01,meteohub,2013-01-15 22:12:00,
2013-01-15 17:17:00,76.6,62.6,30.04,SSW,205,2.0,9.0,62,0.00,,,0.01,meteohub,2013-01-15 22:17:00,
2013-01-15 17:22:00,76.3,62.8,30.05,WSW,250,3.0,7.0,63,0.00,,,0.01,meteohub,2013-01-15 22:22:00,
2013-01-15 17:27:00,75.7,62.2,30.04,SW,236,2.0,5.0,63,0.00,,,0.01,meteohub,2013-01-15 22:27:00,
2013-01-15 17:32:00,75.2,62.2,30.04,West,269,3.0,7.0,64,0.00,,,0.01,meteohub,2013-01-15 22:32:00,
2013-01-15 17:37:00,74.8,62.8,30.04,WSW,246,2.0,7.0,66,0.00,,,0.01,meteohub,2013-01-15 22:37:00,
2013-01-15 17:42:00,74.5,62.8,30.04,SSW,207,1.0,7.0,67,0.00,,,0.01,meteohub,2013-01-15 22:42:00,
2013-01-15 17:47:00,74.1,62.4,30.04,SW,229,3.0,7.0,67,0.00,,,0.01,meteohub,2013-01-15 22:47:00,
2013-01-15 17:52:00,73.9,62.8,30.04,SW,236,1.0,5.0,68,0.00,,,0.01,meteohub,2013-01-15 22:52:00,
2013-01-15 17:57:00,73.6,62.4,30.04,West,260,2.0,5.0,68,0.00,,,0.01,meteohub,2013-01-15 22:57:00,
2013-01-15 18:02:00,73.2,62.4,30.05,SW,220,1.0,5.0,69,0.00,,,0.01,meteohub,2013-01-15 23:02:00,
2013-01-15 18:09:00,72.9,63.0,30.05,SW,220,0.0,5.0,71,0.00,,,0.01,meteohub,2013-01-15 23:09:00,
2013-01-15 18:15:00,72.5,63.0,30.05,SW,220,0.0,3.0,72,0.00,,,0.01,meteohub,2013-01-15 23:15:00,
2013-01-15 18:21:00,72.1,63.0,30.05,SW,220,0.0,1.0,73,0.00,,,0.01,meteohub,2013-01-15 23:21:00,
2013-01-15 18:27:00,71.8,63.0,30.05,SW,220,0.0,1.0,74,0.00,,,0.01,meteohub,2013-01-15 23:27:00,
2013-01-15 18:32:00,71.2,63.0,30.05,SW,220,0.0,1.0,75,0.00,,,0.01,meteohub,2013-01-15 23:32:00,
2013-01-15 18:37:00,71.1,63.1,30.04,SW,220,0.0,1.0,76,0.00,,,0.01,meteohub,2013-01-15 23:37:00,
2013-01-15 18:42:00,70.7,63.1,30.05,SW,220,0.0,1.0,77,0.00,,,0.01,meteohub,2013-01-15 23:42:00,
2013-01-15 18:47:00,70.3,63.1,30.04,SW,220,0.0,0.0,78,0.00,,,0.01,meteohub,2013-01-15 23:47:00,
2013-01-15 18:52:00,70.0,63.1,30.04,SW,220,0.0,0.0,79,0.00,,,0.01,meteohub,2013-01-15 23:52:00,
2013-01-15 18:57:00,69.6,63.1,30.04,SW,220,0.0,0.0,80,0.00,,,0.01,meteohub,2013-01-15 23:57:00,
2013-01-15 19:02:00,69.3,62.8,30.04,SW,220,0.0,0.0,80,0.00,,,0.01,meteohub,2013-01-16 00:02:00,
2013-01-15 19:07:00,69.1,63.0,30.04,SW,220,0.0,0.0,81,0.00,,,0.01,meteohub,2013-01-16 00:07:00,
2013-01-15 19:12:00,68.7,63.0,30.04,SW,220,0.0,0.0,82,0.00,,,0.01,meteohub,2013-01-16 00:12:00,
2013-01-15 19:17:00,68.4,63.0,30.04,SW,220,0.0,0.0,83,0.00,,,0.01,meteohub,2013-01-16 00:17:00,
2013-01-15 19:22:00,68.2,63.1,30.04,SW,220,0.0,0.0,84,0.00,,,0.01,meteohub,2013-01-16 00:22:00,
2013-01-15 19:27:00,68.0,63.3,30.04,SW,220,0.0,0.0,85,0.00,,,0.01,meteohub,2013-01-16 00:27:00,
2013-01-15 19:32:00,67.8,63.1,30.04,SW,220,0.0,0.0,85,0.00,,,0.01,meteohub,2013-01-16 00:32:00,
2013-01-15 19:37:00,67.6,63.3,30.04,SW,220,0.0,0.0,86,0.00,,,0.01,meteohub,2013-01-16 00:37:00,
2013-01-15 19:42:00,67.5,63.1,30.04,SW,220,0.0,0.0,86,0.00,,,0.01,meteohub,2013-01-16 00:42:00,
2013-01-15 19:49:00,67.1,63.1,30.04,SW,220,0.0,0.0,87,0.00,,,0.01,meteohub,2013-01-16 00:49:00,
2013-01-15 19:55:00,66.9,63.0,30.04,SW,220,0.0,0.0,87,0.00,,,0.01,meteohub,2013-01-16 00:55:00,
2013-01-15 20:01:00,66.9,63.3,30.04,SW,220,0.0,0.0,88,0.00,,,0.01,meteohub,2013-01-16 01:01:00,
2013-01-15 20:07:00,66.9,63.3,30.04,SW,220,0.0,0.0,88,0.00,,,0.01,meteohub,2013-01-16 01:07:00,
2013-01-15 20:12:00,66.9,63.5,30.04,SW,220,0.0,0.0,89,0.00,,,0.01,meteohub,2013-01-16 01:12:00,
2013-01-15 20:17:00,66.7,63.3,30.04,SW,220,0.0,0.0,89,0.00,,,0.01,meteohub,2013-01-16 01:17:00,
2013-01-15 20:22:00,66.9,63.5,30.04,SW,220,0.0,0.0,89,0.00,,,0.01,meteohub,2013-01-16 01:22:00,
2013-01-15 20:27:00,66.9,63.5,30.04,SW,220,0.0,0.0,89,0.00,,,0.01,meteohub,2013-01-16 01:27:00,
2013-01-15 20:32:00,66.9,63.5,30.04,SW,220,0.0,0.0,89,0.00,,,0.01,meteohub,2013-01-16 01:32:00,
2013-01-15 20:37:00,66.9,63.5,30.04,SW,220,0.0,0.0,89,0.00,,,0.01,meteohub,2013-01-16 01:37:00,
2013-01-15 20:42:00,66.7,63.7,30.04,SW,220,0.0,0.0,90,0.00,,,0.01,meteohub,2013-01-16 01:42:00,
2013-01-15 20:47:00,66.7,63.7,30.04,SW,220,0.0,0.0,90,0.00,,,0.01,meteohub,2013-01-16 01:47:00,
2013-01-15 20:52:00,66.6,63.5,30.04,SW,220,0.0,0.0,90,0.00,,,0.01,meteohub,2013-01-16 01:52:00,
2013-01-15 20:57:00,66.6,63.5,30.04,SW,220,0.0,0.0,90,0.00,,,0.01,meteohub,2013-01-16 01:57:00,
2013-01-15 21:02:00,66.4,63.7,30.03,SW,220,0.0,0.0,91,0.00,,,0.01,meteohub,2013-01-16 02:02:00,
2013-01-15 21:07:00,66.4,63.7,30.03,SW,220,0.0,0.0,91,0.00,,,0.01,meteohub,2013-01-16 02:07:00,
2013-01-15 21:12:00,66.4,63.7,30.03,SW,220,0.0,0.0,91,0.00,,,0.01,meteohub,2013-01-16 02:12:00,
2013-01-15 21:17:00,66.2,63.5,30.03,SW,220,0.0,0.0,91,0.00,,,0.01,meteohub,2013-01-16 02:17:00,
2013-01-15 21:22:00,66.2,63.9,30.04,SW,220,0.0,0.0,92,0.00,,,0.01,meteohub,2013-01-16 02:22:00,
2013-01-15 21:27:00,66.2,63.9,30.04,SW,220,0.0,0.0,92,0.00,,,0.01,meteohub,2013-01-16 02:27:00,
2013-01-15 21:32:00,66.0,63.7,30.04,SW,220,0.0,0.0,92,0.00,,,0.01,meteohub,2013-01-16 02:32:00,
2013-01-15 21:37:00,66.0,63.7,30.04,SW,220,0.0,0.0,92,0.00,,,0.01,meteohub,2013-01-16 02:37:00,
2013-01-15 21:42:00,66.0,63.7,30.04,SW,220,0.0,0.0,92,0.00,,,0.01,meteohub,2013-01-16 02:42:00,
2013-01-15 21:49:00,66.0,63.7,30.04,SW,220,0.0,0.0,92,0.00,,,0.01,meteohub,2013-01-16 02:49:00,
2013-01-15 21:55:00,66.4,64.0,30.04,SW,220,0.0,0.0,92,0.00,,,0.01,meteohub,2013-01-16 02:55:00,
2013-01-15 22:01:00,66.4,64.2,30.04,SW,220,0.0,0.0,93,0.00,,,0.01,meteohub,2013-01-16 03:01:00,
2013-01-15 22:07:00,66.6,64.4,30.05,SW,220,0.0,0.0,93,0.00,,,0.01,meteohub,2013-01-16 03:07:00,
2013-01-15 22:12:00,66.6,64.2,30.04,SW,220,0.0,0.0,92,0.00,,,0.01,meteohub,2013-01-16 03:12:00,
2013-01-15 22:17:00,66.6,64.2,30.04,SW,220,0.0,0.0,92,0.00,,,0.01,meteohub,2013-01-16 03:17:00,
2013-01-15 22:22:00,66.6,64.2,30.04,SW,220,0.0,0.0,92,0.00,,,0.01,meteohub,2013-01-16 03:22:00,
2013-01-15 22:27:00,66.6,64.4,30.04,SW,220,0.0,0.0,93,0.00,,,0.01,meteohub,2013-01-16 03:27:00,
2013-01-15 22:32:00,66.6,64.4,30.04,SW,220,0.0,0.0,93,0.00,,,0.01,meteohub,2013-01-16 03:32:00,
2013-01-15 22:37:00,66.6,64.2,30.04,SW,220,0.0,0.0,92,0.00,,,0.01,meteohub,2013-01-16 03:37:00,
2013-01-15 22:42:00,66.4,64.0,30.04,SW,220,0.0,0.0,92,0.00,,,0.01,meteohub,2013-01-16 03:42:00,
2013-01-15 22:47:00,66.4,64.0,30.04,SW,220,0.0,0.0,92,0.00,,,0.01,meteohub,2013-01-16 03:47:00,
2013-01-15 22:52:00,66.4,64.0,30.04,SW,220,0.0,0.0,92,0.00,,,0.01,meteohub,2013-01-16 03:52:00,
2013-01-15 22:57:00,66.2,63.9,30.04,SW,220,0.0,0.0,92,0.00,,,0.01,meteohub,2013-01-16 03:57:00,
2013-01-15 23:02:00,66.0,63.9,30.04,SW,220,0.0,0.0,93,0.00,,,0.01,meteohub,2013-01-16 04:02:00,
2013-01-15 23:07:00,66.0,63.9,30.04,SW,220,0.0,0.0,93,0.00,,,0.01,meteohub,2013-01-16 04:07:00,
2013-01-15 23:12:00,65.8,63.7,30.04,SW,220,0.0,0.0,93,0.00,,,0.01,meteohub,2013-01-16 04:12:00,
2013-01-15 23:17:00,65.8,63.7,30.04,SW,220,0.0,0.0,93,0.00,,,0.01,meteohub,2013-01-16 04:17:00,
2013-01-15 23:22:00,66.0,64.2,30.04,SW,220,0.0,0.0,94,0.00,,,0.01,meteohub,2013-01-16 04:22:00,
2013-01-15 23:29:00,66.0,63.9,30.04,SW,220,0.0,0.0,93,0.00,,,0.01,meteohub,2013-01-16 04:29:00,
2013-01-15 23:35:00,65.8,63.7,30.04,SW,220,0.0,0.0,93,0.00,,,0.01,meteohub,2013-01-16 04:35:00,
2013-01-15 23:41:00,65.8,63.7,30.04,SW,220,0.0,0.0,93,0.00,,,0.01,meteohub,2013-01-16 04:41:00,
2013-01-15 23:47:00,65.8,64.0,30.04,SW,220,0.0,0.0,94,0.00,,,0.01,meteohub,2013-01-16 04:47:00,
2013-01-15 23:52:00,65.8,64.0,30.04,SW,220,0.0,1.0,94,0.00,,,0.01,meteohub,2013-01-16 04:52:00,
2013-01-15 23:57:00,65.8,64.0,30.04,SW,220,0.0,1.0,94,0.00,,,0.01,meteohub,2013-01-16 04:57:00,